Time;durP1;ratioP1;P1;durP2;ratioP2;P2;SDS_P1;SDS_P2;PMS_P1;PMS_P2;Temp;Humidity;BMP_temperature;BMP_pressure;BME280_temperature;BME280_humidity;BME280_pressure;Samples;Min_cycle;Max_cycle;Signal;HPM_P1;HPM_P2
2021/11/20 00:00:08;;;;;;;11.03;8.30;;;7.60;99.90;;;;;;5034687;28;20172;-69
2021/11/20 00:02:33;;;;;;;7.30;5.95;;;7.50;99.90;;;;;;5034950;28;20511;-71
2021/11/20 00:05:02;;;;;;;9.57;7.47;;;7.50;99.90;;;;;;5034697;28;20656;-69
2021/11/20 00:07:28;;;;;;;12.55;7.47;;;7.50;99.90;;;;;;5032930;28;20549;-69
2021/11/20 00:09:54;;;;;;;10.93;7.80;;;7.50;99.90;;;;;;5034572;28;20173;-70
2021/11/20 00:12:25;;;;;;;10.47;7.23;;;7.50;99.90;;;;;;5033463;28;20173;-69
2021/11/20 00:14:51;;;;;;;7.22;6.05;;;7.50;99.90;;;;;;5034622;28;20165;-69
2021/11/20 00:17:17;;;;;;;10.93;5.93;;;7.40;99.90;;;;;;5034161;28;20201;-69
2021/11/20 00:19:43;;;;;;;11.03;6.93;;;7.40;99.90;;;;;;5034482;28;20598;-69
2021/11/20 00:22:16;;;;;;;9.35;6.50;;;7.40;99.90;;;;;;5022022;28;20269;-69
2021/11/20 00:24:45;;;;;;;10.40;6.10;;;7.40;99.90;;;;;;5014794;28;20166;-69
2021/11/20 00:27:17;;;;;;;8.75;4.95;;;7.40;99.90;;;;;;5014110;28;20177;-70
2021/11/20 00:29:58;;;;;;;11.68;5.68;;;7.40;99.90;;;;;;5014363;28;20187;-69
2021/11/20 00:32:27;;;;;;;5.75;5.25;;;7.40;99.90;;;;;;5014399;28;20189;-69
2021/11/20 00:34:55;;;;;;;7.10;5.78;;;7.40;99.90;;;;;;5014425;28;20183;-70
2021/11/20 00:37:21;;;;;;;7.00;6.25;;;7.50;99.90;;;;;;5013845;28;20299;-69
2021/11/20 00:39:47;;;;;;;8.93;5.03;;;7.50;99.90;;;;;;5014216;28;20201;-70
2021/11/20 00:42:13;;;;;;;7.70;5.07;;;7.50;99.90;;;;;;5014275;28;20253;-70
2021/11/20 00:44:39;;;;;;;8.15;6.20;;;7.50;99.90;;;;;;5014124;28;20612;-70
2021/11/20 00:47:06;;;;;;;8.45;5.72;;;7.50;99.90;;;;;;5013863;28;20176;-70
2021/11/20 00:49:32;;;;;;;7.43;5.97;;;7.50;99.90;;;;;;5014074;28;20212;-69
2021/11/20 00:51:58;;;;;;;10.15;5.30;;;7.50;99.90;;;;;;5014238;28;20525;-69
2021/11/20 00:54:25;;;;;;;8.52;6.20;;;7.60;99.90;;;;;;5014029;28;20167;-69
2021/11/20 00:56:50;;;;;;;6.40;5.80;;;7.60;99.90;;;;;;5013663;28;20174;-69
2021/11/20 00:59:16;;;;;;;11.40;7.50;;;7.60;99.90;;;;;;5013722;28;20278;-69
2021/11/20 01:01:58;;;;;;;13.10;7.03;;;7.60;99.90;;;;;;5013850;28;20170;-69
2021/11/20 01:04:25;;;;;;;11.07;7.45;;;7.60;99.90;;;;;;5013810;28;20686;-69
2021/11/20 01:06:53;;;;;;;11.10;6.53;;;7.50;99.90;;;;;;5013392;28;20200;-69
2021/11/20 01:09:25;;;;;;;11.18;7.22;;;7.50;99.90;;;;;;5013342;28;20197;-69
2021/11/20 01:12:16;;;;;;;6.05;5.28;;;7.50;99.90;;;;;;5013605;28;20240;-69
2021/11/20 01:14:44;;;;;;;8.93;6.00;;;7.60;99.90;;;;;;5013419;28;20190;-69
2021/11/20 01:17:11;;;;;;;8.27;6.25;;;7.60;99.90;;;;;;5011961;28;20181;-69
2021/11/20 01:19:37;;;;;;;10.73;7.97;;;7.60;99.90;;;;;;5013556;28;20198;-69
2021/11/20 01:22:07;;;;;;;6.97;6.03;;;7.60;99.90;;;;;;5025039;28;20599;-69
2021/11/20 01:24:33;;;;;;;12.93;6.50;;;7.50;99.90;;;;;;5033160;28;20257;-69
2021/11/20 01:26:58;;;;;;;10.15;6.75;;;7.50;99.90;;;;;;5033113;28;20173;-69
2021/11/20 01:29:25;;;;;;;6.67;5.27;;;7.50;99.90;;;;;;5033357;28;20192;-69
2021/11/20 01:31:53;;;;;;;7.65;6.22;;;7.60;99.90;;;;;;5033413;28;20490;-69
2021/11/20 01:34:22;;;;;;;8.70;5.75;;;7.50;99.90;;;;;;5032021;28;20177;-69
2021/11/20 01:36:49;;;;;;;8.75;5.65;;;7.50;99.90;;;;;;5032775;28;20266;-69
2021/11/20 01:39:22;;;;;;;5.78;5.18;;;7.40;99.90;;;;;;5033244;28;20206;-68
2021/11/20 01:41:53;;;;;;;7.75;6.07;;;7.50;99.90;;;;;;5033572;28;20169;-68
2021/11/20 01:44:22;;;;;;;8.75;5.63;;;7.50;99.90;;;;;;5033348;28;20261;-70
2021/11/20 01:46:53;;;;;;;7.95;5.55;;;7.50;99.90;;;;;;5031759;28;20695;-68
2021/11/20 01:49:23;;;;;;;7.30;6.47;;;7.50;99.90;;;;;;5035369;28;20209;-70
2021/11/20 01:51:53;;;;;;;8.18;5.60;;;7.50;99.90;;;;;;5037625;28;20166;-69
2021/11/20 01:54:38;;;;;;;9.75;5.38;;;7.50;99.90;;;;;;5033934;28;20183;-69
2021/11/20 01:57:32;;;;;;;12.63;8.25;;;7.40;99.90;;;;;;5036921;28;20176;-69
2021/11/20 02:00:01;;;;;;;9.60;6.20;;;7.50;99.90;;;;;;5036650;28;20258;-68
2021/11/20 02:02:43;;;;;;;8.02;5.97;;;7.60;99.90;;;;;;5035865;28;20197;-68
2021/11/20 02:05:23;;;;;;;6.95;4.85;;;7.60;99.90;;;;;;5033299;28;20166;-68
2021/11/20 02:08:10;;;;;;;12.15;7.30;;;7.60;99.90;;;;;;5033064;28;20195;-68
2021/11/20 02:10:44;;;;;;;6.35;4.40;;;7.60;99.90;;;;;;5032872;28;20526;-69
2021/11/20 02:13:14;;;;;;;8.20;5.50;;;7.60;99.90;;;;;;5033065;28;20172;-69
2021/11/20 02:15:45;;;;;;;10.52;5.45;;;7.60;99.90;;;;;;5032814;28;20583;-68
2021/11/20 02:18:12;;;;;;;8.82;6.10;;;7.60;99.90;;;;;;5032152;28;20210;-67
2021/11/20 02:20:45;;;;;;;5.43;4.22;;;7.60;99.90;;;;;;5034839;28;20231;-69
2021/11/20 02:23:11;;;;;;;4.78;4.32;;;7.60;99.90;;;;;;5016722;28;20165;-69
2021/11/20 02:25:36;;;;;;;7.80;6.20;;;7.50;99.90;;;;;;5016808;28;20575;-69
2021/11/20 02:28:03;;;;;;;9.50;6.07;;;7.50;99.90;;;;;;5016340;28;20244;-69
2021/11/20 02:30:40;;;;;;;8.18;5.60;;;7.50;99.90;;;;;;5016480;28;20588;-69
2021/11/20 02:33:22;;;;;;;9.88;7.85;;;7.50;99.90;;;;;;5015338;28;20687;-69
2021/11/20 02:35:54;;;;;;;10.05;5.35;;;7.50;99.90;;;;;;5016562;28;20183;-70
2021/11/20 02:38:31;;;;;;;9.07;5.72;;;7.50;99.90;;;;;;5016103;28;20242;-69
2021/11/20 02:40:59;;;;;;;5.80;4.57;;;7.50;99.90;;;;;;5016671;28;20174;-68
2021/11/20 02:43:26;;;;;;;9.07;6.00;;;7.40;99.90;;;;;;5016579;28;20169;-68
2021/11/20 02:45:55;;;;;;;5.13;4.53;;;7.50;99.90;;;;;;5016304;28;20723;-68
2021/11/20 02:48:21;;;;;;;10.80;5.32;;;7.40;99.90;;;;;;5015890;28;20285;-69
2021/11/20 02:50:54;;;;;;;6.63;4.85;;;7.40;99.90;;;;;;5015084;28;20313;-69
2021/11/20 02:53:34;;;;;;;6.97;4.95;;;7.50;99.90;;;;;;5016493;28;20196;-70
2021/11/20 02:56:01;;;;;;;9.38;6.25;;;7.40;99.90;;;;;;5016127;28;20303;-69
2021/11/20 02:58:27;;;;;;;7.80;5.72;;;7.40;99.90;;;;;;5015612;28;20214;-69
2021/11/20 03:00:58;;;;;;;7.00;5.40;;;7.40;99.90;;;;;;5016143;28;20184;-69
2021/11/20 03:03:24;;;;;;;8.10;5.25;;;7.40;99.90;;;;;;5016121;28;20196;-69
2021/11/20 03:05:50;;;;;;;5.77;4.30;;;7.40;99.90;;;;;;5015901;28;20166;-68
2021/11/20 03:08:15;;;;;;;8.00;5.93;;;7.40;99.90;;;;;;5015466;28;20193;-70
2021/11/20 03:10:41;;;;;;;5.50;4.73;;;7.40;99.90;;;;;;5015913;28;20174;-69
2021/11/20 03:13:07;;;;;;;8.05;6.43;;;7.40;99.90;;;;;;5016196;28;20178;-69
2021/11/20 03:15:33;;;;;;;6.10;5.53;;;7.40;99.90;;;;;;5014523;28;20715;-69
2021/11/20 03:17:59;;;;;;;7.37;5.07;;;7.40;99.90;;;;;;5015369;28;20209;-70
2021/11/20 03:20:25;;;;;;;8.53;5.50;;;7.40;99.90;;;;;;5015972;28;20173;-70
2021/11/20 03:23:16;;;;;;;5.88;4.70;;;7.40;99.90;;;;;;5033713;28;20528;-70
2021/11/20 03:25:42;;;;;;;12.32;6.70;;;7.50;99.90;;;;;;5033488;28;20177;-70
2021/11/20 03:28:08;;;;;;;7.63;5.30;;;7.50;99.90;;;;;;5035018;28;20288;-68
2021/11/20 03:30:35;;;;;;;11.63;6.03;;;7.50;99.90;;;;;;5034930;28;20659;-68
2021/11/20 03:33:01;;;;;;;5.40;3.83;;;7.50;99.90;;;;;;5033973;28;20181;-68
2021/11/20 03:35:28;;;;;;;6.35;5.60;;;7.50;99.90;;;;;;5035258;28;20267;-69
2021/11/20 03:37:55;;;;;;;7.60;4.95;;;7.50;99.90;;;;;;5034443;28;20281;-69
2021/11/20 03:40:22;;;;;;;9.35;4.70;;;7.50;99.90;;;;;;5035143;28;20181;-70
2021/11/20 03:42:48;;;;;;;5.57;4.85;;;7.50;99.90;;;;;;5035468;28;20208;-69
2021/11/20 03:45:15;;;;;;;7.87;5.17;;;7.40;99.90;;;;;;5035152;28;20575;-69
2021/11/20 03:47:41;;;;;;;6.85;4.72;;;7.40;99.90;;;;;;5034500;28;20445;-68
2021/11/20 03:50:10;;;;;;;9.87;5.07;;;7.50;99.90;;;;;;5035073;28;20224;-69
2021/11/20 03:52:35;;;;;;;7.82;5.43;;;7.50;99.90;;;;;;5034744;28;20412;-69
2021/11/20 03:55:03;;;;;;;7.00;3.90;;;7.50;99.90;;;;;;5034734;28;20183;-69
2021/11/20 03:57:29;;;;;;;6.35;4.43;;;7.50;99.90;;;;;;5034408;28;20201;-69
2021/11/20 03:59:54;;;;;;;7.80;6.07;;;7.50;99.90;;;;;;5034680;28;20181;-69
2021/11/20 04:02:20;;;;;;;4.77;4.37;;;7.50;99.90;;;;;;5034939;28;20165;-69
2021/11/20 04:04:46;;;;;;;5.83;4.17;;;7.50;99.90;;;;;;5034982;28;20169;-69
2021/11/20 04:07:11;;;;;;;6.27;4.83;;;7.50;99.90;;;;;;5033312;28;20651;-69
2021/11/20 04:09:37;;;;;;;7.63;5.43;;;7.50;99.90;;;;;;5034614;28;20227;-69
2021/11/20 04:12:03;;;;;;;6.57;3.10;;;7.50;99.90;;;;;;5034531;28;20252;-69
2021/11/20 04:14:28;;;;;;;5.47;4.50;;;7.50;99.90;;;;;;5034709;28;20165;-68
2021/11/20 04:16:54;;;;;;;5.10;3.77;;;7.60;99.90;;;;;;5034136;28;20857;-69
2021/11/20 04:19:22;;;;;;;5.97;4.53;;;7.50;99.90;;;;;;5034072;28;20466;-69
2021/11/20 04:21:49;;;;;;;8.13;4.65;;;7.60;99.90;;;;;;5023551;28;20417;-70
2021/11/20 04:24:16;;;;;;;8.30;4.95;;;7.50;99.90;;;;;;5014495;28;20502;-68
2021/11/20 04:26:42;;;;;;;7.22;4.32;;;7.60;99.90;;;;;;5014133;28;20178;-68
2021/11/20 04:29:08;;;;;;;7.20;5.35;;;7.60;99.90;;;;;;5014587;28;20691;-68
2021/11/20 04:31:34;;;;;;;5.73;5.03;;;7.60;99.90;;;;;;5017220;28;20185;-69
2021/11/20 04:34:00;;;;;;;6.78;5.25;;;7.60;99.90;;;;;;5032834;28;20188;-69
2021/11/20 04:36:26;;;;;;;7.80;6.17;;;7.60;99.90;;;;;;5033605;28;20652;-69
2021/11/20 04:38:53;;;;;;;7.03;4.68;;;7.50;99.90;;;;;;5033942;28;20556;-69
2021/11/20 04:41:20;;;;;;;6.72;5.07;;;7.50;99.90;;;;;;5034062;28;20168;-69
2021/11/20 04:43:47;;;;;;;6.22;5.05;;;7.50;99.90;;;;;;5033471;28;20216;-69
2021/11/20 04:46:16;;;;;;;7.05;5.25;;;7.50;99.90;;;;;;5033762;28;20173;-69
2021/11/20 04:48:42;;;;;;;6.30;4.57;;;7.60;99.90;;;;;;5033784;28;20675;-69
2021/11/20 04:51:09;;;;;;;4.83;3.90;;;7.50;99.90;;;;;;5033791;28;20178;-68
2021/11/20 04:53:38;;;;;;;6.70;4.40;;;7.60;99.90;;;;;;5033664;28;20439;-68
2021/11/20 04:56:05;;;;;;;8.00;4.57;;;7.50;99.90;;;;;;5033844;28;20260;-68
2021/11/20 04:58:33;;;;;;;6.95;5.13;;;7.50;99.90;;;;;;5033287;28;20596;-68
2021/11/20 05:00:59;;;;;;;5.25;4.05;;;7.40;99.90;;;;;;5032323;28;20173;-68
2021/11/20 05:03:26;;;;;;;6.13;4.13;;;7.50;99.90;;;;;;5033479;28;20595;-68
2021/11/20 05:05:53;;;;;;;6.78;4.97;;;7.40;99.90;;;;;;5033680;28;20169;-69
2021/11/20 05:08:20;;;;;;;7.07;4.72;;;7.50;99.90;;;;;;5033161;28;20292;-68
2021/11/20 05:10:47;;;;;;;6.15;4.75;;;7.50;99.90;;;;;;5033581;28;20168;-68
2021/11/20 05:13:13;;;;;;;6.70;5.47;;;7.40;99.90;;;;;;5033253;28;20243;-68
2021/11/20 05:15:41;;;;;;;5.30;4.32;;;7.40;99.90;;;;;;5031500;28;20176;-68
2021/11/20 05:18:07;;;;;;;7.30;5.78;;;7.40;99.90;;;;;;5032871;28;20208;-68
2021/11/20 05:20:33;;;;;;;5.47;4.97;;;7.40;99.90;;;;;;5033619;28;20528;-68
2021/11/20 05:22:59;;;;;;;6.43;4.28;;;7.40;99.90;;;;;;5014249;28;20526;-69
2021/11/20 05:25:25;;;;;;;5.83;4.20;;;7.50;99.90;;;;;;5013789;28;20214;-69
2021/11/20 05:27:53;;;;;;;8.40;4.47;;;7.40;99.90;;;;;;5013201;28;20200;-69
2021/11/20 05:30:27;;;;;;;5.60;5.07;;;7.40;99.90;;;;;;5013378;28;20808;-69
2021/11/20 05:32:53;;;;;;;5.32;4.65;;;7.40;99.90;;;;;;5012308;28;20644;-69
2021/11/20 05:35:20;;;;;;;6.65;4.75;;;7.40;99.90;;;;;;5013594;28;20234;-69
2021/11/20 05:37:46;;;;;;;12.68;7.22;;;7.40;99.90;;;;;;5012880;28;20259;-69
2021/11/20 05:40:14;;;;;;;7.25;4.55;;;7.50;99.90;;;;;;5013349;28;20174;-69
2021/11/20 05:42:49;;;;;;;9.18;4.82;;;7.40;99.90;;;;;;5012040;28;20532;-69
2021/11/20 05:45:16;;;;;;;7.97;5.72;;;7.40;99.90;;;;;;5013359;28;20176;-68
2021/11/20 05:47:42;;;;;;;12.35;5.78;;;7.40;99.90;;;;;;5012937;28;20204;-69
2021/11/20 05:50:08;;;;;;;5.53;4.63;;;7.40;99.90;;;;;;5013531;28;20631;-69
2021/11/20 05:52:34;;;;;;;6.25;4.57;;;7.50;99.90;;;;;;5013375;28;20174;-69
2021/11/20 05:55:00;;;;;;;8.35;5.22;;;7.50;99.90;;;;;;5016273;28;20180;-69
2021/11/20 05:57:26;;;;;;;7.20;5.30;;;7.40;99.90;;;;;;5016864;28;20659;-69
2021/11/20 05:59:52;;;;;;;5.45;4.97;;;7.40;99.90;;;;;;5017327;28;20514;-69
2021/11/20 06:02:18;;;;;;;8.80;4.83;;;7.40;99.90;;;;;;5017206;28;20163;-69
2021/11/20 06:04:44;;;;;;;4.85;3.45;;;7.40;99.90;;;;;;5017340;28;20540;-69
2021/11/20 06:07:11;;;;;;;7.97;4.72;;;7.40;99.90;;;;;;5016922;28;20634;-69
2021/11/20 06:09:39;;;;;;;7.80;4.95;;;7.40;99.90;;;;;;5017146;28;20229;-69
2021/11/20 06:12:06;;;;;;;8.77;5.40;;;7.40;99.90;;;;;;5017124;28;20207;-69
2021/11/20 06:14:31;;;;;;;6.85;5.00;;;7.50;99.90;;;;;;5015659;28;20182;-69
2021/11/20 06:16:57;;;;;;;7.93;5.23;;;7.50;99.90;;;;;;5016730;28;20178;-67
2021/11/20 06:19:23;;;;;;;7.17;4.43;;;7.40;99.90;;;;;;5016778;28;20241;-68
2021/11/20 06:21:49;;;;;;;6.00;4.57;;;7.40;99.90;;;;;;5017076;28;20259;-68
2021/11/20 06:24:15;;;;;;;6.23;3.80;;;7.50;99.90;;;;;;5015696;28;20170;-68
2021/11/20 06:26:41;;;;;;;5.45;3.90;;;7.50;99.90;;;;;;5016340;28;20169;-69
2021/11/20 06:29:06;;;;;;;6.87;5.00;;;7.50;99.90;;;;;;5016698;28;20694;-69
2021/11/20 06:31:32;;;;;;;10.23;6.50;;;7.50;99.90;;;;;;5017020;28;20529;-69
2021/11/20 06:34:00;;;;;;;5.57;3.67;;;7.50;99.90;;;;;;5016744;28;20226;-69
2021/11/20 06:36:26;;;;;;;11.75;7.32;;;7.50;99.90;;;;;;5016205;28;20530;-71
2021/11/20 06:38:52;;;;;;;7.55;5.65;;;7.50;99.90;;;;;;5016650;28;20205;-69
2021/11/20 06:41:18;;;;;;;6.13;5.40;;;7.40;99.90;;;;;;5015120;28;20178;-68
2021/11/20 06:43:43;;;;;;;8.97;5.30;;;7.40;99.90;;;;;;5016552;28;20169;-66
2021/11/20 06:46:12;;;;;;;8.93;6.57;;;7.40;99.90;;;;;;5016320;28;20189;-67
2021/11/20 06:48:38;;;;;;;5.53;4.28;;;7.40;99.90;;;;;;5014754;28;20299;-65
2021/11/20 06:51:05;;;;;;;5.78;5.22;;;7.40;99.90;;;;;;5016507;28;20170;-67
2021/11/20 06:53:31;;;;;;;9.63;6.47;;;7.40;99.90;;;;;;5016197;28;20173;-66
2021/11/20 06:55:57;;;;;;;9.57;4.00;;;7.40;99.90;;;;;;5016126;28;20286;-65
2021/11/20 07:01:06;;;;;;;9.98;5.40;;;7.40;99.90;;;;;;5016336;28;20170;-66
2021/11/20 07:03:37;;;;;;;7.38;5.60;;;7.40;99.90;;;;;;5016415;28;20166;-66
2021/11/20 07:06:14;;;;;;;9.00;6.30;;;7.40;99.90;;;;;;5015600;28;20543;-66
2021/11/20 07:08:42;;;;;;;7.45;5.43;;;7.40;99.90;;;;;;5015775;28;20564;-65
2021/11/20 07:11:08;;;;;;;9.63;6.05;;;7.40;99.90;;;;;;5015964;28;20175;-67
2021/11/20 07:13:34;;;;;;;10.98;6.28;;;7.40;99.90;;;;;;5015804;28;20193;-66
2021/11/20 07:16:00;;;;;;;13.50;7.03;;;7.50;99.90;;;;;;5015777;28;20644;-67
2021/11/20 07:18:27;;;;;;;8.02;6.50;;;7.50;99.90;;;;;;5015220;28;20524;-66
2021/11/20 07:20:53;;;;;;;8.70;6.32;;;7.50;99.90;;;;;;5017330;28;20205;-68
2021/11/20 07:23:19;;;;;;;9.15;6.93;;;7.50;99.90;;;;;;5035118;28;20170;-67
2021/11/20 07:25:45;;;;;;;9.98;5.57;;;7.50;99.90;;;;;;5035505;28;20572;-67
2021/11/20 07:28:11;;;;;;;7.38;5.75;;;7.50;99.90;;;;;;5035317;28;20280;-69
2021/11/20 07:30:40;;;;;;;10.77;6.13;;;7.50;99.90;;;;;;5033895;28;20704;-69
2021/11/20 07:33:05;;;;;;;5.70;5.20;;;7.60;99.90;;;;;;5033742;28;20404;-68
2021/11/20 07:35:41;;;;;;;11.33;7.23;;;7.60;99.90;;;;;;5034096;28;20180;-69
2021/11/20 07:38:10;;;;;;;6.63;5.85;;;7.60;99.90;;;;;;5034867;28;20240;-69
2021/11/20 07:40:39;;;;;;;8.40;6.30;;;7.60;99.90;;;;;;5035284;28;20173;-68
2021/11/20 07:43:05;;;;;;;11.23;5.38;;;7.70;99.90;;;;;;5036140;28;20176;-68
2021/11/20 07:45:31;;;;;;;7.82;5.15;;;7.70;99.90;;;;;;5034628;28;20672;-69
2021/11/20 07:48:05;;;;;;;8.43;5.30;;;7.70;99.90;;;;;;5034424;28;20273;-67
2021/11/20 07:50:31;;;;;;;8.38;6.82;;;7.80;99.90;;;;;;5034983;28;20172;-67
2021/11/20 07:52:57;;;;;;;8.33;6.13;;;7.80;99.90;;;;;;5035001;28;20170;-68
2021/11/20 07:55:23;;;;;;;7.93;5.47;;;7.80;99.90;;;;;;5034728;28;20768;-69
2021/11/20 07:57:48;;;;;;;8.13;6.27;;;7.90;99.90;;;;;;5034244;28;20284;-69
2021/11/20 08:00:17;;;;;;;10.57;7.20;;;8.00;99.90;;;;;;5034972;28;20305;-68
2021/11/20 08:02:43;;;;;;;8.05;6.03;;;8.00;99.90;;;;;;5035031;28;20186;-68
2021/11/20 08:05:09;;;;;;;8.03;6.20;;;8.00;99.90;;;;;;5034684;28;20166;-69
2021/11/20 08:07:36;;;;;;;7.95;5.57;;;8.10;99.90;;;;;;5034481;28;20415;-69
2021/11/20 08:10:06;;;;;;;9.32;5.97;;;8.10;99.90;;;;;;5034549;28;20583;-70
2021/11/20 08:12:32;;;;;;;10.07;6.25;;;8.10;99.90;;;;;;5034643;28;20252;-68
2021/11/20 08:14:58;;;;;;;9.13;7.53;;;8.10;99.90;;;;;;5033092;28;20196;-68
2021/11/20 08:17:23;;;;;;;10.87;6.13;;;8.20;99.90;;;;;;5032956;28;20174;-68
2021/11/20 08:19:49;;;;;;;8.63;6.20;;;8.20;99.90;;;;;;5034499;28;20496;-69
2021/11/20 08:22:18;;;;;;;6.77;5.10;;;8.10;99.90;;;;;;5021020;28;20262;-69
2021/11/20 08:24:43;;;;;;;9.07;5.32;;;8.20;99.90;;;;;;5014510;28;20692;-70
2021/11/20 08:27:09;;;;;;;7.40;5.13;;;8.20;99.90;;;;;;5013101;28;20171;-67
2021/11/20 08:29:38;;;;;;;9.20;6.30;;;8.20;99.90;;;;;;5014367;28;20198;-68
2021/11/20 08:32:08;;;;;;;9.27;6.68;;;8.30;99.90;;;;;;5014398;28;20752;-67
2021/11/20 08:34:35;;;;;;;7.82;5.05;;;8.30;99.90;;;;;;5014382;28;20210;-69
2021/11/20 08:37:00;;;;;;;6.75;4.97;;;8.30;99.90;;;;;;5013928;28;20183;-69
2021/11/20 08:39:28;;;;;;;10.27;6.30;;;8.40;99.90;;;;;;5014204;28;20210;-69
2021/11/20 08:41:53;;;;;;;8.82;5.20;;;8.40;99.90;;;;;;5014200;28;20173;-69
2021/11/20 08:44:19;;;;;;;7.47;6.73;;;8.40;99.90;;;;;;5012998;28;20170;-69
2021/11/20 08:46:48;;;;;;;14.70;7.17;;;8.40;99.90;;;;;;5014186;28;20202;-69
2021/11/20 08:49:14;;;;;;;8.55;7.10;;;8.40;99.90;;;;;;5013958;28;20487;-69
2021/11/20 08:51:41;;;;;;;9.27;5.50;;;8.50;99.90;;;;;;5013292;28;20189;-68
2021/11/20 08:54:07;;;;;;;9.52;5.97;;;8.60;99.90;;;;;;5013928;28;20189;-69
2021/11/20 08:56:36;;;;;;;10.37;6.27;;;8.60;99.90;;;;;;5013662;28;20536;-68
2021/11/20 08:59:03;;;;;;;8.60;4.07;;;8.70;99.90;;;;;;5013861;28;20203;-68
2021/11/20 09:01:37;;;;;;;12.25;7.50;;;8.70;99.90;;;;;;5014099;28;20178;-67
2021/11/20 09:04:06;;;;;;;7.68;4.78;;;8.70;99.90;;;;;;5013917;28;20173;-69
2021/11/20 09:06:31;;;;;;;5.65;4.90;;;8.80;99.90;;;;;;5013644;28;20221;-68
2021/11/20 09:09:35;;;;;;;7.20;5.40;;;8.80;99.90;;;;;;5013482;28;20230;-68
2021/11/20 09:12:13;;;;;;;5.75;5.15;;;8.90;99.90;;;;;;5013381;28;20220;-67
2021/11/20 09:14:51;;;;;;;7.32;5.38;;;9.00;99.90;;;;;;5013770;28;20163;-69
2021/11/20 09:17:19;;;;;;;7.85;4.93;;;9.00;99.90;;;;;;5013118;28;20217;-69
2021/11/20 09:19:46;;;;;;;10.02;6.70;;;9.10;99.90;;;;;;5013487;28;20190;-68
2021/11/20 09:22:12;;;;;;;7.28;5.95;;;9.10;99.90;;;;;;5026446;28;20600;-67
2021/11/20 09:24:40;;;;;;;5.43;3.75;;;9.10;99.90;;;;;;5033340;28;20177;-68
2021/11/20 09:27:07;;;;;;;5.50;4.70;;;9.10;99.90;;;;;;5033007;28;20558;-68
2021/11/20 09:29:33;;;;;;;7.43;6.72;;;9.10;99.90;;;;;;5032773;28;20556;-68
2021/11/20 09:32:00;;;;;;;9.73;5.47;;;9.10;99.90;;;;;;5032113;28;20178;-68
2021/11/20 09:34:25;;;;;;;5.00;3.95;;;9.10;99.90;;;;;;5033619;28;20308;-68
2021/11/20 09:36:54;;;;;;;6.43;4.57;;;9.20;99.90;;;;;;5032662;28;20272;-68
2021/11/20 09:39:24;;;;;;;8.13;5.25;;;9.30;99.90;;;;;;5032849;28;20232;-66
2021/11/20 09:41:56;;;;;;;8.50;6.00;;;9.30;99.90;;;;;;5032921;28;20166;-67
2021/11/20 09:44:22;;;;;;;4.93;4.10;;;9.30;99.90;;;;;;5033053;28;20166;-68
2021/11/20 09:46:52;;;;;;;4.88;4.43;;;9.40;99.90;;;;;;5032751;28;20162;-66
2021/11/20 09:49:33;;;;;;;5.85;4.68;;;9.50;99.90;;;;;;5033158;28;20190;-68
2021/11/20 09:51:59;;;;;;;5.75;5.03;;;9.50;99.90;;;;;;5033095;28;20173;-68
2021/11/20 09:54:28;;;;;;;5.43;4.82;;;9.50;99.90;;;;;;5031643;28;20177;-67
2021/11/20 09:57:09;;;;;;;5.70;4.35;;;9.50;99.90;;;;;;5032826;28;20236;-67
2021/11/20 09:59:45;;;;;;;4.88;4.38;;;9.50;99.90;;;;;;5032749;28;20225;-68
2021/11/20 10:02:29;;;;;;;5.47;4.90;;;9.60;99.90;;;;;;5032746;28;20227;-68
2021/11/20 10:05:03;;;;;;;5.25;4.55;;;9.50;99.90;;;;;;5032943;28;20192;-68
2021/11/20 10:07:45;;;;;;;4.53;4.05;;;9.50;99.90;;;;;;5032526;28;20541;-68
2021/11/20 10:10:26;;;;;;;7.50;4.75;;;9.60;99.90;;;;;;5032775;28;20184;-68
2021/11/20 10:13:11;;;;;;;5.95;3.95;;;9.60;99.90;;;;;;5032885;28;20796;-69
2021/11/20 10:15:41;;;;;;;5.43;3.78;;;9.70;99.90;;;;;;5032662;28;20189;-67
2021/11/20 10:18:12;;;;;;;5.13;3.47;;;9.70;99.90;;;;;;5031999;28;20338;-68
2021/11/20 10:20:50;;;;;;;8.07;3.58;;;9.80;99.90;;;;;;5032845;28;20170;-68
2021/11/20 10:23:47;;;;;;;6.15;3.97;;;9.90;99.90;;;;;;5013100;28;20170;-68
2021/11/20 10:26:35;;;;;;;4.70;4.13;;;9.90;99.90;;;;;;5012636;28;20179;-68
2021/11/20 10:29:13;;;;;;;7.00;3.63;;;9.90;99.90;;;;;;5012771;28;20273;-69
2021/11/20 10:32:04;;;;;;;6.43;4.13;;;9.90;99.90;;;;;;5011485;28;20182;-66
2021/11/20 10:34:38;;;;;;;3.95;3.45;;;9.90;99.90;;;;;;5012599;28;20183;-68
2021/11/20 10:37:27;;;;;;;5.65;4.15;;;9.90;99.90;;;;;;5012296;28;20228;-68
2021/11/20 10:40:32;;;;;;;4.38;4.03;;;10.00;99.90;;;;;;5012738;28;20178;-68
2021/11/20 10:43:04;;;;;;;3.33;3.05;;;10.00;99.90;;;;;;5016300;28;20549;-68
2021/11/20 10:45:30;;;;;;;3.95;3.15;;;10.00;99.90;;;;;;5014888;28;20254;-68
2021/11/20 10:48:08;;;;;;;6.37;3.67;;;10.00;99.90;;;;;;5015566;28;20278;-68
2021/11/20 10:50:41;;;;;;;11.07;4.55;;;10.00;99.90;;;;;;5016135;28;20178;-68
2021/11/20 10:53:25;;;;;;;7.72;3.72;;;10.00;99.90;;;;;;5015978;28;20645;-68
2021/11/20 10:56:09;;;;;;;4.93;3.75;;;10.00;99.90;;;;;;5016241;28;20253;-68
2021/11/20 10:58:53;;;;;;;3.42;2.78;;;10.00;99.90;;;;;;5015698;28;20214;-68
2021/11/20 11:01:42;;;;;;;2.65;2.42;;;9.90;99.90;;;;;;5016040;28;20177;-68
2021/11/20 11:04:35;;;;;;;4.28;3.88;;;9.90;99.90;;;;;;5016305;28;20163;-68
2021/11/20 11:07:39;;;;;;;4.75;3.95;;;9.90;99.90;;;;;;5015933;28;20167;-68
2021/11/20 11:10:11;;;;;;;4.60;3.60;;;9.90;99.90;;;;;;5015800;28;20186;-69
2021/11/20 11:12:51;;;;;;;4.32;3.97;;;9.90;99.90;;;;;;5016041;28;20167;-68
2021/11/20 11:15:25;;;;;;;3.55;3.22;;;9.90;99.90;;;;;;5015737;28;20174;-68
2021/11/20 11:18:15;;;;;;;4.85;2.88;;;10.00;99.90;;;;;;5015285;28;20207;-68
2021/11/20 11:20:55;;;;;;;3.15;2.85;;;10.00;99.90;;;;;;5016089;28;20175;-68
2021/11/20 11:23:47;;;;;;;2.80;2.58;;;10.00;99.90;;;;;;5035692;28;20189;-68
2021/11/20 11:26:15;;;;;;;2.30;2.10;;;10.00;99.90;;;;;;5034102;28;20174;-68
2021/11/20 11:29:00;;;;;;;1.77;1.50;;;10.00;99.90;;;;;;5035287;28;20297;-68
2021/11/20 11:31:36;;;;;;;3.50;3.05;;;10.00;99.90;;;;;;5035274;28;20176;-68
2021/11/20 11:34:22;;;;;;;2.17;1.98;;;10.00;99.90;;;;;;5035275;28;20173;-69
2021/11/20 11:37:09;;;;;;;2.95;2.35;;;10.00;99.90;;;;;;5034730;28;20648;-68
2021/11/20 11:40:07;;;;;;;2.10;1.90;;;10.00;99.90;;;;;;5034865;28;20292;-68
2021/11/20 11:42:59;;;;;;;2.25;2.05;;;9.90;99.90;;;;;;5025940;28;20182;-68
2021/11/20 11:45:35;;;;;;;3.35;3.05;;;10.00;99.90;;;;;;5035068;28;20181;-68
2021/11/20 11:48:38;;;;;;;4.00;2.80;;;10.00;99.90;;;;;;5033446;28;20217;-68
2021/11/20 11:51:19;;;;;;;2.45;2.25;;;10.10;99.90;;;;;;5034959;28;20221;-67
2021/11/20 11:54:12;;;;;;;3.65;2.15;;;10.10;99.90;;;;;;5034985;28;20178;-68
2021/11/20 11:56:42;;;;;;;3.70;2.30;;;10.00;99.90;;;;;;5034807;28;20184;-69
2021/11/20 11:59:22;;;;;;;3.47;3.17;;;10.00;99.90;;;;;;5034621;28;20205;-68
2021/11/20 12:02:14;;;;;;;2.65;2.45;;;10.00;99.90;;;;;;5034680;28;20509;-68
2021/11/20 12:04:56;;;;;;;4.13;3.80;;;10.00;99.90;;;;;;5034953;28;20216;-68
2021/11/20 12:07:25;;;;;;;3.47;3.03;;;10.00;99.90;;;;;;5034259;28;20163;-68
2021/11/20 12:10:07;;;;;;;5.05;3.05;;;10.10;99.90;;;;;;5034797;28;20249;-67
2021/11/20 12:12:39;;;;;;;7.93;2.97;;;10.10;99.90;;;;;;5034737;28;20597;-68
2021/11/20 12:15:31;;;;;;;3.25;2.58;;;10.10;99.90;;;;;;5034687;28;20576;-70
2021/11/20 12:18:18;;;;;;;5.03;3.30;;;10.10;99.90;;;;;;5033996;28;20624;-68
2021/11/20 12:21:15;;;;;;;3.20;2.45;;;10.10;99.90;;;;;;5033717;28;20569;-69
2021/11/20 12:23:53;;;;;;;3.28;2.83;;;10.10;99.90;;;;;;5014632;28;20213;-67
2021/11/20 12:26:37;;;;;;;5.05;3.53;;;10.10;99.90;;;;;;5014529;28;20311;-68
2021/11/20 12:29:08;;;;;;;2.92;2.20;;;10.10;99.90;;;;;;5014231;28;20192;-68
2021/11/20 12:32:00;;;;;;;5.30;2.92;;;10.10;99.90;;;;;;5014578;28;20178;-67
2021/11/20 12:34:54;;;;;;;3.80;2.35;;;10.20;99.90;;;;;;5014596;28;20505;-68
2021/11/20 12:37:48;;;;;;;3.67;3.00;;;10.20;99.90;;;;;;5013712;28;20190;-68
2021/11/20 12:40:57;;;;;;;5.45;3.05;;;10.20;99.90;;;;;;5013171;28;20229;-68
2021/11/20 12:43:50;;;;;;;3.60;2.92;;;10.20;99.90;;;;;;5014011;28;20187;-68
2021/11/20 12:46:57;;;;;;;2.47;2.20;;;10.20;99.90;;;;;;5014094;28;20173;-68
2021/11/20 12:49:34;;;;;;;4.38;3.92;;;10.10;99.90;;;;;;5014079;28;20546;-68
2021/11/20 12:52:25;;;;;;;3.90;3.50;;;10.10;99.90;;;;;;5013820;28;20727;-68
2021/11/20 12:54:53;;;;;;;3.30;2.22;;;10.10;99.90;;;;;;5014032;28;20182;-68
2021/11/20 12:57:40;;;;;;;3.63;3.30;;;10.00;99.90;;;;;;5013515;28;20244;-68
2021/11/20 13:00:09;;;;;;;2.60;2.25;;;10.00;99.90;;;;;;5014156;28;20562;-68
2021/11/20 13:03:01;;;;;;;6.15;3.25;;;10.10;99.90;;;;;;5013674;28;20178;-69
2021/11/20 13:05:38;;;;;;;3.30;3.00;;;10.10;99.90;;;;;;5013941;28;20221;-70
2021/11/20 13:08:30;;;;;;;3.42;3.13;;;10.10;99.90;;;;;;5013682;28;20195;-68
2021/11/20 13:11:18;;;;;;;6.05;4.35;;;10.00;99.90;;;;;;5012350;28;20282;-71
2021/11/20 13:14:11;;;;;;;3.38;3.00;;;10.00;99.90;;;;;;5013980;28;20534;-68
2021/11/20 13:17:13;;;;;;;3.90;3.60;;;9.90;99.90;;;;;;5012150;28;20230;-68
2021/11/20 13:19:48;;;;;;;5.93;4.25;;;9.90;99.90;;;;;;5013406;28;20206;-75